Time;durP1;ratioP1;P1;durP2;ratioP2;P2;SDS_P1;SDS_P2;PMS_P1;PMS_P2;Temp;Humidity;BMP_temperature;BMP_pressure;BME280_temperature;BME280_humidity;BME280_pressure;Samples;Min_cycle;Max_cycle;Signal;HPM_P1;HPM_P2
2024/02/01 00:00:22;;;;;;;13.80;12.37;;;6.10;99.90;;;;;;4985885;28;20502;-62
2024/02/01 00:02:52;;;;;;;14.07;12.73;;;6.00;99.90;;;;;;4994463;28;20495;-62
2024/02/01 00:05:20;;;;;;;13.73;12.40;;;6.00;99.90;;;;;;4993607;28;20470;-62
2024/02/01 00:07:48;;;;;;;18.40;13.10;;;6.00;99.90;;;;;;4992520;28;21011;-62
2024/02/01 00:10:16;;;;;;;13.77;12.23;;;6.00;99.90;;;;;;4996745;28;20496;-62
2024/02/01 00:12:44;;;;;;;16.40;12.93;;;6.00;99.90;;;;;;4997801;28;21055;-62
2024/02/01 00:15:13;;;;;;;14.50;12.43;;;6.00;99.90;;;;;;4991117;28;20492;-62
2024/02/01 00:17:41;;;;;;;14.60;13.10;;;6.00;99.90;;;;;;4989835;28;21032;-62
2024/02/01 00:20:12;;;;;;;15.80;13.23;;;6.00;99.90;;;;;;4993259;28;20496;-62
2024/02/01 00:22:40;;;;;;;15.73;12.70;;;6.00;99.90;;;;;;4990813;28;20798;-61
2024/02/01 00:25:08;;;;;;;16.90;13.27;;;6.00;99.90;;;;;;4999526;28;20555;-62
2024/02/01 00:27:36;;;;;;;15.20;13.17;;;6.00;99.90;;;;;;4991300;28;20562;-62
2024/02/01 00:30:05;;;;;;;14.43;13.03;;;6.00;99.90;;;;;;4993839;28;20570;-62
2024/02/01 00:32:33;;;;;;;14.37;12.67;;;6.00;99.90;;;;;;4997240;28;20492;-62
2024/02/01 00:35:01;;;;;;;14.20;12.50;;;6.00;99.90;;;;;;4997869;28;20476;-62
2024/02/01 00:37:31;;;;;;;14.50;12.90;;;6.10;99.90;;;;;;4993117;28;20583;-61
2024/02/01 00:40:00;;;;;;;14.33;12.83;;;6.10;99.90;;;;;;4996281;28;20487;-62
2024/02/01 00:42:28;;;;;;;15.40;12.40;;;6.10;99.90;;;;;;4993973;28;20496;-62
2024/02/01 00:44:56;;;;;;;13.87;12.47;;;6.10;99.90;;;;;;4990838;28;20475;-62
2024/02/01 00:47:24;;;;;;;13.17;11.77;;;6.10;99.90;;;;;;4986175;28;20796;-62
2024/02/01 00:49:52;;;;;;;13.87;12.10;;;6.10;99.90;;;;;;4997166;28;20917;-61
2024/02/01 00:52:20;;;;;;;15.83;13.00;;;6.10;99.90;;;;;;4995823;28;20496;-62
2024/02/01 00:54:50;;;;;;;15.07;13.00;;;6.00;99.90;;;;;;4997209;28;20515;-62
2024/02/01 00:57:17;;;;;;;13.17;11.80;;;6.10;99.90;;;;;;4997164;28;20534;-62
2024/02/01 00:59:45;;;;;;;12.77;11.37;;;6.10;99.90;;;;;;4992996;28;20476;-61
2024/02/01 01:02:14;;;;;;;15.13;12.10;;;6.10;99.90;;;;;;4998630;28;20531;-62
2024/02/01 01:04:42;;;;;;;14.50;12.10;;;6.10;99.90;;;;;;4989824;28;20567;-62
2024/02/01 01:07:10;;;;;;;14.13;12.33;;;6.20;99.90;;;;;;4994577;28;20473;-62
2024/02/01 01:09:38;;;;;;;14.23;12.33;;;6.20;99.90;;;;;;4980656;28;20969;-62
2024/02/01 01:12:08;;;;;;;17.43;13.73;;;6.20;99.90;;;;;;4991447;28;20492;-62
2024/02/01 01:14:37;;;;;;;14.43;13.00;;;6.20;99.90;;;;;;4991326;28;20617;-62
2024/02/01 01:17:05;;;;;;;14.17;12.33;;;6.20;99.90;;;;;;4996763;28;21107;-62
2024/02/01 01:19:32;;;;;;;13.57;12.17;;;6.20;99.90;;;;;;4992790;28;20539;-62
2024/02/01 01:22:00;;;;;;;14.50;11.77;;;6.20;99.90;;;;;;5011732;28;21159;-62
2024/02/01 01:24:28;;;;;;;12.50;11.17;;;6.20;99.90;;;;;;5013617;28;20844;-62
2024/02/01 01:26:56;;;;;;;13.73;12.43;;;6.20;99.90;;;;;;5009850;28;20478;-62
2024/02/01 01:29:26;;;;;;;14.00;10.87;;;6.20;99.90;;;;;;5006294;28;20476;-62
2024/02/01 01:31:54;;;;;;;17.90;12.53;;;6.20;99.90;;;;;;5012520;28;20566;-62
2024/02/01 01:34:22;;;;;;;14.73;13.17;;;6.30;99.90;;;;;;5008400;28;20593;-62
2024/02/01 01:36:50;;;;;;;14.23;12.00;;;6.30;99.90;;;;;;5010957;28;20486;-62
2024/02/01 01:39:18;;;;;;;12.60;11.30;;;6.30;99.90;;;;;;5012704;28;20475;-62
2024/02/01 01:41:46;;;;;;;13.30;11.50;;;6.30;99.90;;;;;;5011467;28;20495;-62
2024/02/01 01:44:14;;;;;;;12.77;11.43;;;6.40;99.90;;;;;;5011483;28;20477;-62
2024/02/01 01:46:44;;;;;;;15.20;10.77;;;6.30;99.90;;;;;;5010985;28;20491;-62
2024/02/01 01:49:13;;;;;;;13.10;11.80;;;6.30;99.90;;;;;;5020938;28;20602;-62
2024/02/01 01:51:41;;;;;;;13.53;11.87;;;6.30;99.90;;;;;;5015500;28;20572;-62
2024/02/01 01:54:10;;;;;;;13.40;11.60;;;6.30;99.90;;;;;;5019859;28;20555;-63
2024/02/01 01:56:38;;;;;;;13.37;12.07;;;6.30;99.90;;;;;;5011492;28;20478;-62
2024/02/01 01:59:08;;;;;;;14.40;12.00;;;6.30;99.90;;;;;;5022123;28;20533;-62
2024/02/01 02:01:38;;;;;;;14.87;12.17;;;6.30;99.90;;;;;;5006843;28;20582;-62
2024/02/01 02:04:08;;;;;;;13.97;11.23;;;6.30;99.90;;;;;;5012334;28;20473;-62
2024/02/01 02:06:37;;;;;;;12.33;11.03;;;6.30;99.90;;;;;;5015909;28;21231;-62
2024/02/01 02:09:12;;;;;;;12.70;11.37;;;6.40;99.90;;;;;;5018414;28;20856;-62
2024/02/01 02:11:43;;;;;;;12.00;10.80;;;6.40;99.90;;;;;;5012931;28;20529;-62
2024/02/01 02:14:11;;;;;;;12.43;11.13;;;6.40;99.90;;;;;;5013647;28;21098;-62
2024/02/01 02:16:39;;;;;;;12.27;9.60;;;6.40;99.90;;;;;;5003391;28;20483;-62
2024/02/01 02:19:10;;;;;;;12.67;10.90;;;6.40;99.90;;;;;;5009438;28;20505;-62
2024/02/01 02:21:44;;;;;;;11.50;10.30;;;6.40;99.90;;;;;;5011169;28;20487;-62
2024/02/01 02:24:13;;;;;;;11.83;10.50;;;6.50;99.90;;;;;;5020767;28;20882;-62
2024/02/01 02:26:41;;;;;;;10.50;9.40;;;6.50;99.90;;;;;;5009877;28;20495;-62
2024/02/01 02:29:09;;;;;;;10.70;9.60;;;6.50;99.90;;;;;;5011501;28;20800;-62
2024/02/01 02:31:37;;;;;;;9.70;8.53;;;6.50;99.90;;;;;;5011124;28;20491;-62
2024/02/01 02:34:04;;;;;;;11.13;9.60;;;6.50;99.90;;;;;;5009647;28;20992;-62
2024/02/01 02:36:33;;;;;;;10.67;8.83;;;6.50;99.90;;;;;;5007639;28;21035;-62
2024/02/01 02:39:02;;;;;;;10.17;9.00;;;6.50;99.90;;;;;;5019787;28;20599;-62
2024/02/01 02:41:30;;;;;;;8.53;7.60;;;6.50;99.90;;;;;;5014296;28;20876;-62
2024/02/01 02:44:02;;;;;;;8.13;7.33;;;6.60;99.90;;;;;;5012490;28;20482;-62
2024/02/01 02:46:31;;;;;;;8.30;7.50;;;6.50;99.90;;;;;;5010057;28;20504;-62
2024/02/01 02:48:59;;;;;;;8.20;7.17;;;6.60;99.90;;;;;;5012293;28;20949;-62
2024/02/01 02:51:27;;;;;;;7.83;7.03;;;6.60;99.90;;;;;;5011946;28;20546;-62
2024/02/01 02:53:55;;;;;;;7.67;6.37;;;6.60;99.90;;;;;;5016722;28;20513;-62
2024/02/01 02:56:25;;;;;;;7.93;6.40;;;6.60;99.90;;;;;;5017659;28;20464;-62
2024/02/01 02:58:53;;;;;;;7.47;6.07;;;6.60;99.90;;;;;;5008272;28;20578;-62
2024/02/01 03:01:21;;;;;;;7.20;6.10;;;6.60;99.90;;;;;;5010515;28;20686;-62
2024/02/01 03:03:49;;;;;;;6.83;6.23;;;6.70;99.90;;;;;;5011391;28;20475;-62
2024/02/01 03:06:17;;;;;;;7.13;6.20;;;6.70;99.90;;;;;;5015428;28;20525;-62
2024/02/01 03:08:45;;;;;;;7.30;5.67;;;6.70;99.90;;;;;;5010731;28;20515;-62
2024/02/01 03:11:14;;;;;;;7.43;6.13;;;6.70;99.90;;;;;;5013036;28;21281;-62
2024/02/01 03:13:45;;;;;;;6.60;5.90;;;6.70;99.90;;;;;;5009175;28;21003;-62
2024/02/01 03:16:17;;;;;;;8.23;5.87;;;6.80;99.90;;;;;;5012818;28;20475;-62
2024/02/01 03:18:46;;;;;;;7.63;6.00;;;6.80;99.90;;;;;;5011892;28;20998;-62
2024/02/01 03:21:15;;;;;;;7.10;4.93;;;6.80;99.90;;;;;;5013740;28;21134;-62
2024/02/01 03:23:44;;;;;;;7.80;5.30;;;6.80;99.90;;;;;;5011579;28;22845;-62
2024/02/01 03:26:13;;;;;;;9.63;5.83;;;6.80;99.90;;;;;;5013355;28;20486;-62
2024/02/01 03:28:44;;;;;;;12.00;5.97;;;6.80;99.90;;;;;;5014756;28;20475;-62
2024/02/01 03:31:12;;;;;;;8.77;5.70;;;6.80;99.90;;;;;;5011274;28;20524;-62
2024/02/01 03:33:44;;;;;;;10.10;5.63;;;6.80;99.90;;;;;;5012412;28;20911;-62
2024/02/01 03:36:14;;;;;;;6.20;5.60;;;6.80;99.90;;;;;;5010960;28;21010;-62
2024/02/01 03:38:42;;;;;;;9.30;6.07;;;6.80;99.90;;;;;;5018880;28;20495;-62
2024/02/01 03:41:11;;;;;;;7.43;6.00;;;6.80;99.90;;;;;;4997610;28;21099;-62
2024/02/01 03:43:39;;;;;;;9.87;5.70;;;6.80;99.90;;;;;;4995105;28;20945;-62
2024/02/01 03:46:09;;;;;;;10.70;5.50;;;6.80;99.90;;;;;;4995507;28;20472;-62
2024/02/01 03:48:37;;;;;;;7.97;5.50;;;6.70;99.90;;;;;;4990372;28;20816;-62
2024/02/01 03:51:07;;;;;;;8.63;5.43;;;6.70;99.90;;;;;;4992937;28;20853;-62
2024/02/01 03:53:36;;;;;;;11.07;5.53;;;6.70;99.90;;;;;;4990218;28;24159;-62
2024/02/01 03:56:04;;;;;;;9.77;5.10;;;6.70;99.90;;;;;;4994832;28;20471;-62
2024/02/01 03:58:33;;;;;;;6.10;4.70;;;6.70;99.90;;;;;;4990860;28;20806;-62
2024/02/01 04:01:02;;;;;;;13.33;5.17;;;6.70;99.90;;;;;;4996289;28;20822;-63
2024/02/01 04:03:31;;;;;;;15.00;5.87;;;6.60;99.90;;;;;;4994191;28;20570;-62
2024/02/01 04:06:00;;;;;;;11.23;5.10;;;6.60;99.90;;;;;;4996727;28;20504;-62
2024/02/01 04:08:29;;;;;;;12.60;4.90;;;6.60;99.90;;;;;;4993829;28;20559;-62
2024/02/01 04:10:57;;;;;;;14.97;5.23;;;6.60;99.90;;;;;;4988275;28;20500;-62
2024/02/01 04:13:25;;;;;;;10.97;4.43;;;6.60;99.90;;;;;;4996644;28;20966;-62
2024/02/01 04:15:53;;;;;;;12.60;4.10;;;6.60;99.90;;;;;;4990017;28;20552;-62
2024/02/01 04:18:21;;;;;;;11.83;4.63;;;6.60;99.90;;;;;;4989668;28;21074;-62
2024/02/01 04:20:50;;;;;;;11.67;4.67;;;6.50;99.90;;;;;;4993314;28;20586;-62
2024/02/01 04:23:18;;;;;;;11.20;4.73;;;6.50;99.90;;;;;;4991999;28;20480;-62
2024/02/01 04:25:46;;;;;;;9.13;4.57;;;6.50;99.90;;;;;;4991869;28;21037;-62
2024/02/01 04:28:16;;;;;;;12.70;4.20;;;6.50;99.90;;;;;;4995932;28;20555;-62
2024/02/01 04:30:50;;;;;;;12.87;4.00;;;6.40;99.90;;;;;;4995084;28;20494;-62
2024/02/01 04:33:19;;;;;;;10.90;3.80;;;6.40;99.90;;;;;;4998143;28;20492;-62
2024/02/01 04:35:47;;;;;;;12.20;4.73;;;6.30;99.90;;;;;;4992704;28;20468;-62
2024/02/01 04:38:17;;;;;;;13.90;4.33;;;6.30;99.90;;;;;;4992289;28;20827;-62
2024/02/01 04:40:45;;;;;;;10.83;3.33;;;6.30;99.90;;;;;;4993138;28;20506;-63
2024/02/01 04:43:14;;;;;;;12.40;4.30;;;6.30;99.90;;;;;;4989634;28;20578;-62
2024/02/01 04:45:42;;;;;;;10.00;3.90;;;6.20;99.90;;;;;;4992265;28;20683;-62
2024/02/01 04:48:11;;;;;;;17.20;4.27;;;6.20;99.90;;;;;;4997734;28;20534;-61
2024/02/01 04:50:39;;;;;;;13.90;4.70;;;6.20;99.90;;;;;;4993254;28;20504;-62
2024/02/01 04:53:08;;;;;;;16.40;4.93;;;6.20;99.90;;;;;;4995356;28;20476;-62
2024/02/01 04:55:37;;;;;;;14.33;3.83;;;6.10;99.90;;;;;;4989630;28;20960;-62
2024/02/01 04:58:07;;;;;;;12.67;3.57;;;6.10;99.90;;;;;;4995422;28;20468;-62
2024/02/01 05:00:36;;;;;;;12.53;3.83;;;6.10;99.90;;;;;;4991677;28;20578;-61
2024/02/01 05:03:05;;;;;;;12.47;4.50;;;6.10;99.90;;;;;;5010663;28;20506;-62
2024/02/01 05:05:33;;;;;;;18.00;5.10;;;6.10;99.90;;;;;;5012782;28;20485;-62
2024/02/01 05:08:01;;;;;;;13.90;4.60;;;6.10;99.90;;;;;;5011394;28;21036;-62
2024/02/01 05:10:29;;;;;;;10.77;4.10;;;6.10;99.90;;;;;;5011373;28;20868;-62
2024/02/01 05:12:59;;;;;;;13.10;4.23;;;6.00;99.90;;;;;;5007607;28;20499;-61
2024/02/01 05:15:27;;;;;;;13.37;4.50;;;6.00;99.90;;;;;;5007180;28;20925;-61
2024/02/01 05:17:55;;;;;;;12.30;4.20;;;6.00;99.90;;;;;;5011553;28;20474;-62
2024/02/01 05:20:24;;;;;;;11.83;3.87;;;6.00;99.90;;;;;;4996844;28;20582;-62
2024/02/01 05:22:52;;;;;;;13.37;4.07;;;5.90;99.90;;;;;;4987352;28;20498;-62
2024/02/01 05:25:23;;;;;;;16.13;4.67;;;5.90;99.90;;;;;;4993776;28;20474;-62
2024/02/01 05:27:54;;;;;;;11.67;3.27;;;5.80;99.90;;;;;;4994567;28;20665;-62
2024/02/01 05:30:24;;;;;;;11.37;3.33;;;5.80;99.90;;;;;;4987674;28;20500;-62
2024/02/01 05:32:53;;;;;;;14.00;4.10;;;5.80;99.90;;;;;;4997443;28;20492;-62
2024/02/01 05:35:26;;;;;;;7.63;3.47;;;5.80;99.90;;;;;;4993767;28;20463;-62
2024/02/01 05:37:54;;;;;;;9.43;3.57;;;5.80;99.90;;;;;;4994388;28;20473;-62
2024/02/01 05:40:23;;;;;;;15.30;3.67;;;5.80;99.90;;;;;;4998270;28;20469;-62
2024/02/01 05:42:51;;;;;;;11.50;3.77;;;5.70;99.90;;;;;;4999687;28;20499;-62
2024/02/01 05:45:19;;;;;;;16.23;4.43;;;5.70;99.90;;;;;;4996699;28;20860;-62
2024/02/01 05:47:51;;;;;;;7.53;3.63;;;5.70;99.90;;;;;;4993433;28;20751;-62
2024/02/01 05:50:19;;;;;;;10.17;3.40;;;5.70;99.90;;;;;;4998087;28;20537;-62
2024/02/01 05:52:47;;;;;;;10.73;3.80;;;5.70;99.90;;;;;;4992513;28;20624;-62
2024/02/01 05:55:15;;;;;;;14.50;3.30;;;5.70;99.90;;;;;;4986670;28;20494;-62
2024/02/01 05:57:44;;;;;;;15.90;4.70;;;5.60;99.90;;;;;;4990370;28;20476;-63
2024/02/01 06:00:19;;;;;;;6.20;2.80;;;5.60;99.90;;;;;;4997679;28;20582;-63
2024/02/01 06:02:50;;;;;;;11.27;3.30;;;5.60;99.90;;;;;;4989640;28;20506;-62
2024/02/01 06:05:20;;;;;;;10.60;3.40;;;5.60;99.90;;;;;;4995546;28;20466;-62
2024/02/01 06:07:48;;;;;;;12.97;3.70;;;5.60;99.90;;;;;;4992851;28;20545;-62
2024/02/01 06:10:17;;;;;;;16.13;4.60;;;5.60;99.90;;;;;;4991821;28;20988;-61
2024/02/01 06:12:45;;;;;;;13.47;3.40;;;5.50;99.90;;;;;;4978250;28;20621;-61
2024/02/01 06:15:13;;;;;;;9.30;3.40;;;5.50;99.90;;;;;;4994170;28;20857;-61
2024/02/01 06:17:41;;;;;;;13.40;3.33;;;5.50;99.90;;;;;;4985640;28;21058;-61
2024/02/01 06:20:13;;;;;;;10.27;3.30;;;5.50;99.90;;;;;;4988131;28;20843;-61
2024/02/01 06:22:41;;;;;;;8.93;2.90;;;5.50;99.90;;;;;;4984829;28;21072;-61
2024/02/01 06:25:11;;;;;;;9.63;3.10;;;5.50;99.90;;;;;;4990727;28;20610;-61
2024/02/01 06:27:40;;;;;;;11.20;3.33;;;5.40;99.90;;;;;;4992349;28;22095;-61
2024/02/01 06:30:10;;;;;;;14.90;4.40;;;5.40;99.90;;;;;;4993230;28;21158;-61
2024/02/01 06:32:39;;;;;;;15.93;3.60;;;5.50;99.90;;;;;;5011852;28;20492;-61
2024/02/01 06:35:16;;;;;;;10.90;3.30;;;5.50;99.90;;;;;;5009083;28;20475;-61
2024/02/01 06:37:51;;;;;;;11.47;3.03;;;5.50;99.90;;;;;;5006956;28;20919;-61
2024/02/01 06:40:47;;;;;;;8.20;3.20;;;5.50;99.90;;;;;;5009416;28;20491;-61
2024/02/01 06:43:27;;;;;;;11.70;3.57;;;5.40;99.90;;;;;;5008116;28;20561;-60
2024/02/01 06:46:08;;;;;;;15.00;3.83;;;5.40;99.90;;;;;;5013774;28;20971;-61
2024/02/01 06:48:44;;;;;;;14.13;3.40;;;5.40;99.90;;;;;;5021557;28;20521;-61
2024/02/01 06:51:21;;;;;;;15.93;3.60;;;5.40;99.90;;;;;;5017881;28;20483;-61
2024/02/01 06:53:56;;;;;;;12.37;3.63;;;5.40;99.90;;;;;;5020580;28;20471;-61
2024/02/01 06:56:48;;;;;;;13.63;4.07;;;5.40;99.90;;;;;;5021875;28;20524;-62
2024/02/01 06:59:30;;;;;;;15.73;3.63;;;5.40;99.90;;;;;;5017427;28;20566;-61
2024/02/01 07:02:11;;;;;;;15.90;4.27;;;5.40;99.90;;;;;;4992110;28;20516;-61
2024/02/01 07:04:53;;;;;;;13.83;4.33;;;5.40;99.90;;;;;;4995205;28;20491;-61
2024/02/01 07:07:26;;;;;;;11.77;3.60;;;5.40;99.90;;;;;;4994164;28;20607;-61
2024/02/01 07:10:06;;;;;;;17.33;4.00;;;5.40;99.90;;;;;;5001136;28;20561;-61
2024/02/01 07:12:41;;;;;;;14.77;4.57;;;5.40;99.90;;;;;;4986585;28;20581;-61
2024/02/01 07:15:30;;;;;;;13.07;3.43;;;5.40;99.90;;;;;;4993920;28;20471;-61
2024/02/01 07:17:59;;;;;;;14.10;3.40;;;5.40;99.90;;;;;;4998950;28;20576;-61
2024/02/01 07:20:46;;;;;;;12.40;3.00;;;5.40;99.90;;;;;;4997058;28;20604;-62
2024/02/01 07:26:02;;;;;;;13.33;3.90;;;5.30;99.90;;;;;;4996593;28;20663;-61
2024/02/01 07:59:02;;;;;;;17.70;5.20;;;5.30;99.90;;;;;;5011974;28;20562;-61
2024/02/01 08:01:38;;;;;;;16.90;4.40;;;5.30;99.90;;;;;;5013849;28;20480;-61
2024/02/01 08:04:13;;;;;;;16.00;3.70;;;5.30;99.90;;;;;;5011021;28;20472;-61
2024/02/01 08:09:27;;;;;;;19.73;4.60;;;5.40;99.90;;;;;;5017897;28;20594;-61
2024/02/01 08:11:56;;;;;;;9.87;2.93;;;5.40;99.90;;;;;;5015847;28;20502;-61
2024/02/01 08:14:25;;;;;;;15.77;4.03;;;5.40;99.90;;;;;;5015613;28;20479;-61
2024/02/01 08:16:53;;;;;;;14.40;4.90;;;5.40;99.90;;;;;;5018807;28;20471;-61
2024/02/01 08:19:21;;;;;;;14.67;3.80;;;5.40;99.90;;;;;;5014182;28;20557;-61
2024/02/01 08:22:08;;;;;;;16.40;4.30;;;5.30;99.90;;;;;;5019021;28;20523;-63
2024/02/01 08:24:37;;;;;;;16.10;5.13;;;5.30;99.90;;;;;;5018328;28;20463;-61
2024/02/01 08:27:05;;;;;;;15.80;3.63;;;5.40;99.90;;;;;;5012292;28;20498;-61
2024/02/01 08:29:36;;;;;;;20.50;6.03;;;5.40;99.90;;;;;;5018966;28;20850;-61
2024/02/01 08:32:06;;;;;;;20.80;3.77;;;5.40;99.90;;;;;;5017781;28;20843;-61
2024/02/01 08:34:38;;;;;;;15.37;4.00;;;5.50;99.90;;;;;;5016762;28;20467;-61
2024/02/01 08:37:09;;;;;;;16.07;4.37;;;5.50;99.90;;;;;;5013181;28;20536;-61
2024/02/01 08:39:44;;;;;;;11.20;4.00;;;5.50;99.90;;;;;;5013401;28;20472;-61
2024/02/01 08:42:13;;;;;;;19.10;4.60;;;5.50;99.90;;;;;;5016662;28;21285;-61
2024/02/01 08:44:44;;;;;;;15.37;3.70;;;5.50;99.90;;;;;;5018066;28;20471;-62
2024/02/01 08:47:13;;;;;;;19.50;3.87;;;5.60;99.90;;;;;;5015631;28;20483;-61
2024/02/01 08:49:42;;;;;;;21.23;4.57;;;5.60;99.90;;;;;;5019116;28;20483;-61
2024/02/01 08:52:13;;;;;;;16.63;4.60;;;5.70;99.90;;;;;;5017093;28;20487;-61
2024/02/01 08:54:41;;;;;;;17.93;4.37;;;5.70;99.90;;;;;;5017507;28;20525;-61
2024/02/01 08:57:14;;;;;;;16.23;4.40;;;5.80;99.90;;;;;;5009126;28;20475;-61
2024/02/01 08:59:44;;;;;;;13.33;4.10;;;5.80;99.90;;;;;;5010733;28;20452;-61
2024/02/01 09:02:15;;;;;;;18.63;4.70;;;5.80;99.90;;;;;;4990611;28;20565;-61
2024/02/01 09:04:43;;;;;;;17.93;4.70;;;5.90;99.90;;;;;;4990663;28;20480;-61
2024/02/01 09:07:12;;;;;;;14.23;4.67;;;5.90;99.90;;;;;;4988207;28;20472;-61
2024/02/01 09:09:40;;;;;;;16.97;4.50;;;5.90;99.90;;;;;;4986374;28;20475;-61
2024/02/01 09:12:08;;;;;;;17.73;4.43;;;5.90;99.90;;;;;;4993535;28;20516;-61
2024/02/01 09:14:45;;;;;;;10.17;3.53;;;5.90;99.90;;;;;;4995322;28;20472;-61
2024/02/01 09:17:13;;;;;;;21.70;4.07;;;5.90;99.90;;;;;;4998834;28;20493;-61
2024/02/01 09:19:41;;;;;;;20.33;4.00;;;6.00;99.90;;;;;;4989980;28;20550;-61
2024/02/01 09:22:10;;;;;;;15.53;4.90;;;6.00;99.90;;;;;;4997373;28;20500;-61
2024/02/01 09:24:38;;;;;;;14.50;4.00;;;6.00;99.90;;;;;;4993232;28;20482;-61
2024/02/01 09:27:06;;;;;;;21.47;4.87;;;6.00;99.90;;;;;;4993802;28;20566;-61
2024/02/01 09:29:38;;;;;;;16.83;5.00;;;6.00;99.90;;;;;;4999145;28;20476;-61
2024/02/01 09:32:07;;;;;;;15.83;4.00;;;6.10;99.90;;;;;;4999072;28;20492;-61
2024/02/01 09:34:37;;;;;;;14.67;4.23;;;6.10;99.90;;;;;;4998224;28;21005;-61
2024/02/01 09:37:05;;;;;;;13.07;4.10;;;6.10;99.90;;;;;;4995403;28;20805;-61
2024/02/01 09:39:34;;;;;;;20.73;5.50;;;6.10;99.90;;;;;;4991435;28;20566;-62
2024/02/01 09:42:11;;;;;;;20.27;4.33;;;6.20;99.90;;;;;;4994298;28;20489;-61
2024/02/01 09:44:40;;;;;;;16.43;3.93;;;6.20;99.90;;;;;;5011426;28;20472;-61
2024/02/01 09:47:09;;;;;;;15.87;3.70;;;6.20;99.90;;;;;;5013934;28;20468;-61
2024/02/01 09:49:39;;;;;;;19.70;4.80;;;6.20;99.90;;;;;;5010766;28;20495;-62
2024/02/01 09:52:09;;;;;;;16.93;3.93;;;6.30;99.90;;;;;;4997492;28;20528;-61
2024/02/01 09:54:37;;;;;;;15.80;4.50;;;6.30;99.90;;;;;;4991044;28;20472;-61
2024/02/01 09:57:14;;;;;;;21.40;5.00;;;6.40;99.90;;;;;;4994039;28;20587;-61
2024/02/01 09:59:42;;;;;;;13.53;4.30;;;6.40;99.90;;;;;;4992497;28;20468;-61
2024/02/01 10:02:13;;;;;;;22.23;4.10;;;6.50;99.90;;;;;;4995729;28;20580;-61
2024/02/01 10:04:41;;;;;;;15.27;3.97;;;6.50;99.90;;;;;;4989467;28;20560;-61
2024/02/01 10:07:10;;;;;;;17.80;3.90;;;6.50;99.90;;;;;;4995964;28;20468;-61
2024/02/01 10:09:38;;;;;;;16.47;4.47;;;6.60;99.90;;;;;;4996622;28;21242;-61
2024/02/01 10:12:08;;;;;;;19.80;4.67;;;6.60;99.90;;;;;;4996109;28;20542;-61
2024/02/01 10:14:37;;;;;;;17.20;4.40;;;6.70;99.90;;;;;;4994362;28;20511;-61
2024/02/01 10:17:06;;;;;;;17.37;5.10;;;6.70;99.90;;;;;;4998320;28;21099;-61
2024/02/01 10:19:37;;;;;;;16.63;4.60;;;6.80;99.90;;;;;;5001790;28;20472;-60
2024/02/01 10:22:09;;;;;;;16.43;4.33;;;6.90;99.90;;;;;;4995650;28;20569;-61
2024/02/01 10:24:45;;;;;;;18.93;4.60;;;7.00;99.90;;;;;;4999736;28;20621;-61
2024/02/01 10:27:14;;;;;;;19.80;5.00;;;7.00;99.90;;;;;;4999075;28;20498;-61
2024/02/01 10:29:44;;;;;;;20.27;4.50;;;7.00;99.90;;;;;;4993808;28;20559;-61
2024/02/01 10:32:14;;;;;;;18.93;4.00;;;7.10;99.90;;;;;;5022904;28;20467;-61
2024/02/01 10:34:50;;;;;;;10.93;4.00;;;7.00;99.90;;;;;;5021954;28;20495;-63
2024/02/01 10:37:19;;;;;;;17.60;5.07;;;7.10;99.90;;;;;;5017505;28;20518;-61
2024/02/01 10:39:54;;;;;;;15.87;4.37;;;7.20;99.90;;;;;;5016979;28;20566;-61
2024/02/01 10:42:29;;;;;;;18.70;4.17;;;7.30;99.90;;;;;;5014589;28;20684;-61
2024/02/01 10:45:03;;;;;;;22.53;4.60;;;7.30;99.90;;;;;;5012087;28;21826;-62
2024/02/01 10:47:36;;;;;;;17.23;5.10;;;7.40;99.90;;;;;;5017641;28;20564;-63
2024/02/01 10:50:08;;;;;;;21.03;4.37;;;7.40;99.90;;;;;;5019692;28;20554;-62
2024/02/01 10:52:37;;;;;;;21.17;5.70;;;7.40;99.90;;;;;;5018573;28;20495;-62
2024/02/01 10:55:09;;;;;;;12.80;3.60;;;7.50;99.90;;;;;;5021553;28;20514;-62
2024/02/01 10:57:39;;;;;;;13.07;4.00;;;7.60;99.90;;;;;;5019493;28;20471;-62
2024/02/01 11:00:16;;;;;;;14.33;4.03;;;7.70;99.90;;;;;;5017541;28;20487;-65
2024/02/01 11:02:47;;;;;;;15.73;4.00;;;7.70;99.90;;;;;;5017089;28;20598;-61
2024/02/01 11:05:17;;;;;;;18.77;4.03;;;7.70;99.90;;;;;;5014487;28;20477;-62
2024/02/01 11:07:45;;;;;;;14.00;4.03;;;7.80;99.90;;;;;;5017377;28;20471;-61
2024/02/01 11:10:15;;;;;;;13.90;3.70;;;7.90;99.90;;;;;;5015819;28;20573;-62
2024/02/01 11:12:43;;;;;;;21.10;4.00;;;8.00;99.90;;;;;;5010610;28;20489;-61
2024/02/01 11:15:16;;;;;;;11.60;3.20;;;8.10;99.90;;;;;;5013962;28;20479;-62
2024/02/01 11:17:44;;;;;;;16.77;4.37;;;8.10;99.90;;;;;;5012134;28;20900;-62
2024/02/01 11:20:13;;;;;;;12.47;3.37;;;8.20;99.90;;;;;;5018767;28;20994;-62
2024/02/01 11:22:43;;;;;;;12.80;3.47;;;8.20;99.90;;;;;;5008420;28;21436;-62
2024/02/01 11:25:11;;;;;;;11.63;3.40;;;8.30;99.90;;;;;;5014291;28;21049;-62
2024/02/01 11:27:47;;;;;;;13.93;3.70;;;8.40;99.90;;;;;;5007315;28;20830;-62
2024/02/01 11:30:26;;;;;;;13.20;3.53;;;8.50;99.90;;;;;;5006841;28;20586;-63
2024/02/01 11:32:54;;;;;;;14.80;3.40;;;8.70;99.90;;;;;;5015424;28;20487;-61
2024/02/01 11:35:23;;;;;;;11.37;3.33;;;8.90;99.90;;;;;;5012862;28;20502;-61
2024/02/01 11:38:01;;;;;;;11.03;3.40;;;9.00;99.90;;;;;;5007907;28;20611;-63
2024/02/01 11:40:29;;;;;;;13.70;3.57;;;9.10;99.90;;;;;;5007571;28;20982;-61
2024/02/01 11:42:58;;;;;;;12.10;3.10;;;9.20;99.90;;;;;;5007385;28;20506;-61
2024/02/01 11:45:26;;;;;;;11.67;3.13;;;9.20;99.90;;;;;;5018967;28;20464;-62
2024/02/01 11:47:57;;;;;;;8.93;3.03;;;9.20;99.90;;;;;;5015572;28;20467;-61
2024/02/01 11:50:26;;;;;;;12.07;3.20;;;9.20;99.90;;;;;;5014454;28;20498;-61
2024/02/01 11:52:58;;;;;;;7.93;3.33;;;9.20;99.90;;;;;;5017424;28;20511;-62
2024/02/01 11:55:29;;;;;;;13.50;2.77;;;9.20;99.90;;;;;;5013911;28;20952;-61
2024/02/01 11:57:59;;;;;;;9.13;2.90;;;9.10;99.90;;;;;;5009352;28;20479;-62
2024/02/01 12:00:28;;;;;;;9.00;2.43;;;9.00;99.90;;;;;;5015642;28;20487;-61
2024/02/01 12:03:19;;;;;;;8.93;2.60;;;9.00;99.90;;;;;;5020467;28;20499;-61
2024/02/01 12:05:47;;;;;;;13.33;2.90;;;9.00;99.90;;;;;;5014031;28;20542;-61
2024/02/01 12:08:17;;;;;;;9.27;2.87;;;9.40;99.90;;;;;;5012167;28;21875;-61
2024/02/01 12:10:46;;;;;;;11.87;3.10;;;9.50;99.90;;;;;;5011683;28;20487;-62
2024/02/01 12:13:15;;;;;;;12.83;4.37;;;9.50;99.90;;;;;;5015197;28;20467;-62
2024/02/01 12:15:44;;;;;;;11.13;3.23;;;9.50;99.90;;;;;;5018044;28;20495;-62
2024/02/01 12:18:13;;;;;;;15.67;3.10;;;9.80;99.90;;;;;;5015725;28;20578;-62
2024/02/01 12:20:45;;;;;;;12.60;4.10;;;10.10;99.90;;;;;;5013545;28;20498;-62
2024/02/01 12:23:14;;;;;;;10.07;3.67;;;10.80;99.90;;;;;;5007877;28;20498;-62
2024/02/01 12:25:47;;;;;;;15.90;3.77;;;11.80;99.90;;;;;;5015887;28;20605;-62
2024/02/01 12:28:15;;;;;;;11.60;3.20;;;12.70;99.90;;;;;;5019506;28;20924;-62
2024/02/01 12:30:44;;;;;;;8.40;2.90;;;12.90;99.90;;;;;;5015835;28;20921;-62
2024/02/01 12:33:13;;;;;;;6.77;3.00;;;13.60;99.90;;;;;;5018805;28;20474;-62
2024/02/01 12:35:43;;;;;;;8.17;3.10;;;14.00;99.90;;;;;;5010863;28;20476;-62
2024/02/01 12:38:13;;;;;;;10.40;2.73;;;13.60;99.90;;;;;;5011495;28;20479;-62
2024/02/01 12:40:41;;;;;;;10.00;3.20;;;13.30;99.90;;;;;;5008662;28;20541;-62
2024/02/01 12:43:10;;;;;;;9.00;2.97;;;13.90;99.90;;;;;;5012862;28;22075;-62
2024/02/01 12:45:45;;;;;;;9.27;2.80;;;14.00;99.90;;;;;;5009039;28;20818;-62
2024/02/01 12:48:14;;;;;;;9.60;3.10;;;14.30;99.90;;;;;;5014886;28;20463;-62
2024/02/01 12:50:42;;;;;;;8.57;3.23;;;14.50;99.90;;;;;;5009063;28;20484;-62
2024/02/01 12:53:10;;;;;;;13.77;4.20;;;14.30;99.90;;;;;;5011447;28;20649;-62
2024/02/01 12:55:38;;;;;;;8.70;3.10;;;13.80;99.90;;;;;;5008788;28;20551;-65
2024/02/01 12:58:06;;;;;;;10.93;3.63;;;12.90;99.90;;;;;;5010100;28;21266;-62
2024/02/01 13:00:35;;;;;;;10.60;3.30;;;12.20;99.90;;;;;;5012385;28;20665;-62
2024/02/01 13:03:04;;;;;;;12.10;3.20;;;11.50;99.90;;;;;;5015548;28;20498;-62
2024/02/01 13:05:32;;;;;;;13.50;3.47;;;11.00;99.90;;;;;;5008629;28;20472;-62
2024/02/01 13:08:01;;;;;;;12.57;3.20;;;10.60;99.90;;;;;;5019582;28;20518;-62
2024/02/01 13:10:29;;;;;;;12.20;3.30;;;10.30;99.90;;;;;;5008286;28;20575;-62
2024/02/01 13:12:58;;;;;;;13.17;3.60;;;10.20;99.90;;;;;;5014224;28;20557;-62
2024/02/01 13:15:27;;;;;;;11.37;2.87;;;10.50;99.90;;;;;;5013995;28;20590;-63
2024/02/01 13:17:57;;;;;;;14.63;3.70;;;10.70;99.90;;;;;;5009657;28;20475;-62
2024/02/01 13:20:26;;;;;;;9.80;3.30;;;11.00;99.90;;;;;;5004351;28;20570;-62
2024/02/01 13:22:55;;;;;;;9.10;2.60;;;11.30;99.90;;;;;;4998513;28;20496;-63
2024/02/01 13:25:23;;;;;;;9.70;3.13;;;11.50;99.90;;;;;;5001546;28;20472;-62
2024/02/01 13:27:52;;;;;;;9.27;2.80;;;11.60;99.90;;;;;;4988795;28;20498;-62
2024/02/01 13:30:23;;;;;;;10.97;2.90;;;11.90;99.90;;;;;;4994761;28;20520;-62
2024/02/01 13:32:52;;;;;;;10.30;3.37;;;12.20;99.90;;;;;;4987481;28;20598;-62
2024/02/01 13:35:21;;;;;;;11.70;3.40;;;12.10;99.90;;;;;;4994663;28;20966;-62